Time;durP1;ratioP1;P1;durP2;ratioP2;P2;SDS_P1;SDS_P2;PMS_P1;PMS_P2;Temp;Humidity;BMP_temperature;BMP_pressure;BME280_temperature;BME280_humidity;BME280_pressure;Samples;Min_cycle;Max_cycle;Signal;HPM_P1;HPM_P2
2023/03/17 00:00:16;;;;;;;;;;;0.80;84.40;;;;;;4991293;28;20053;-75
2023/03/17 00:02:44;;;;;;;18.70;8.05;;;0.80;83.50;;;;;;4990984;28;20390;-74
2023/03/17 00:05:16;;;;;;;21.05;4.68;;;0.90;84.90;;;;;;4991342;28;20055;-74
2023/03/17 00:07:43;;;;;;;13.52;4.50;;;1.00;85.60;;;;;;4991875;28;20038;-75
2023/03/17 00:10:18;;;;;;;19.80;6.68;;;1.00;85.80;;;;;;4991004;28;20037;-74
2023/03/17 00:12:44;;;;;;;28.38;8.38;;;0.90;88.70;;;;;;4988811;28;20043;-74
2023/03/17 00:15:13;;;;;;;26.88;9.00;;;0.90;90.60;;;;;;4989051;28;20592;-74
2023/03/17 00:17:40;;;;;;;26.25;10.15;;;0.90;92.40;;;;;;4990560;28;20034;-74
2023/03/17 00:20:09;;;;;;;24.17;8.18;;;0.80;93.50;;;;;;4989369;28;20126;-74
2023/03/17 00:22:35;;;;;;;21.52;8.10;;;0.70;94.80;;;;;;4988948;28;20057;-71
2023/03/17 00:25:00;;;;;;;;;;;0.60;96.30;;;;;;4990752;28;20117;-74
2023/03/17 00:27:27;;;;;;;19.35;5.93;;;0.60;97.40;;;;;;4989451;28;19960;-74
2023/03/17 00:29:52;;;;;;;10.90;4.40;;;0.60;97.40;;;;;;4990378;28;20022;-74
2023/03/17 00:32:19;;;;;;;;;;;0.60;97.60;;;;;;4990684;28;20042;-74
2023/03/17 00:34:45;;;;;;;16.05;6.78;;;0.60;98.40;;;;;;4990268;28;19936;-73
2023/03/17 00:37:11;;;;;;;20.92;10.02;;;0.50;98.60;;;;;;4990158;28;20026;-74
2023/03/17 00:39:38;;;;;;;24.88;10.95;;;0.50;99.50;;;;;;4990218;28;20088;-74
2023/03/17 00:42:05;;;;;;;25.13;12.43;;;0.50;99.90;;;;;;4990317;28;20065;-74
2023/03/17 00:44:32;;;;;;;20.23;9.68;;;0.50;99.80;;;;;;4992897;28;20088;-74
2023/03/17 00:46:58;;;;;;;19.27;7.93;;;0.60;99.90;;;;;;4989897;28;20077;-74
2023/03/17 00:49:25;;;;;;;14.98;6.18;;;0.50;99.90;;;;;;4990018;28;20061;-74
2023/03/17 00:51:51;;;;;;;11.68;4.68;;;0.50;99.90;;;;;;4988288;28;20054;-75
2023/03/17 00:54:19;;;;;;;10.70;3.53;;;0.40;99.90;;;;;;4988487;28;20462;-73
2023/03/17 00:56:46;;;;;;;12.68;4.60;;;0.40;99.90;;;;;;4990059;28;20080;-75
2023/03/17 00:59:39;;;;;;;11.38;4.20;;;0.40;99.90;;;;;;4989999;28;20066;-75
2023/03/17 01:02:05;;;;;;;9.30;3.60;;;0.40;99.90;;;;;;4988494;28;20038;-75
2023/03/17 01:04:32;;;;;;;8.05;2.67;;;0.50;99.90;;;;;;4989788;28;20023;-75
2023/03/17 01:06:58;;;;;;;10.52;3.28;;;0.50;99.90;;;;;;4989922;28;20038;-75
2023/03/17 01:09:25;;;;;;;;;;;0.50;99.90;;;;;;4990926;28;20023;-75
2023/03/17 01:11:51;;;;;;;11.75;2.83;;;0.60;99.90;;;;;;4988559;28;19917;-74
2023/03/17 01:14:17;;;;;;;;;;;0.60;99.90;;;;;;4989325;28;20034;-74
2023/03/17 01:16:43;;;;;;;15.30;4.00;;;0.50;99.90;;;;;;4988711;28;19915;-75
2023/03/17 01:19:11;;;;;;;9.73;4.53;;;0.50;99.90;;;;;;4988445;28;20026;-75
2023/03/17 01:21:37;;;;;;;10.88;3.85;;;0.50;99.90;;;;;;4988835;28;20041;-75
2023/03/17 01:24:03;;;;;;;;;;;0.50;99.90;;;;;;4990570;28;20027;-74
2023/03/17 01:26:29;;;;;;;13.15;5.30;;;0.40;99.90;;;;;;4987621;28;19917;-74
2023/03/17 01:28:54;;;;;;;;;;;0.40;99.90;;;;;;4989860;28;20035;-74
2023/03/17 01:31:21;;;;;;;14.00;4.20;;;0.40;99.90;;;;;;4988378;28;20063;-75
2023/03/17 01:33:47;;;;;;;15.30;5.60;;;0.20;99.90;;;;;;4988501;28;20027;-75
2023/03/17 01:36:12;;;;;;;;;;;0.20;99.90;;;;;;4992010;28;20036;-78
2023/03/17 01:38:39;;;;;;;13.30;3.95;;;0.20;99.90;;;;;;4989681;28;20000;-74
2023/03/17 01:41:05;;;;;;;12.38;4.35;;;0.10;99.90;;;;;;4989607;28;20030;-75
2023/03/17 01:43:30;;;;;;;;;;;0.10;99.90;;;;;;4988957;28;20077;-74
2023/03/17 01:46:19;;;;;;;10.30;3.25;;;0.00;99.90;;;;;;4988370;28;19945;-74
2023/03/17 01:48:57;;;;;;;10.52;3.58;;;0.10;99.90;;;;;;4989778;28;20394;-74
2023/03/17 01:51:23;;;;;;;9.63;4.38;;;0.10;99.90;;;;;;4988265;28;20026;-74
2023/03/17 01:53:49;;;;;;;;;;;0.10;99.90;;;;;;4990760;28;20093;-75
2023/03/17 01:56:16;;;;;;;17.15;5.10;;;0.00;99.90;;;;;;4991706;28;19910;-74
2023/03/17 01:58:45;;;;;;;14.65;5.15;;;-0.10;99.90;;;;;;4993031;28;20033;-75
2023/03/17 02:01:12;;;;;;;15.40;5.38;;;-0.10;99.90;;;;;;4994182;28;20034;-75
2023/03/17 02:03:39;;;;;;;14.60;3.95;;;-0.10;99.90;;;;;;4991278;28;20023;-75
2023/03/17 02:06:06;;;;;;;12.05;3.35;;;-0.10;99.90;;;;;;4988778;28;20034;-77
2023/03/17 02:08:31;;;;;;;12.88;3.67;;;-0.10;99.90;;;;;;4987870;28;20041;-74
2023/03/17 02:10:57;;;;;;;;;;;0.00;99.90;;;;;;4989136;28;20030;-74
2023/03/17 02:13:23;;;;;;;8.45;1.80;;;0.10;99.90;;;;;;4988098;28;20481;-75
2023/03/17 02:15:50;;;;;;;;;;;0.30;99.90;;;;;;4990206;28;20065;-74
2023/03/17 02:18:19;;;;;;;9.53;2.30;;;0.40;99.90;;;;;;4992201;28;19932;-74
2023/03/17 02:20:45;;;;;;;6.82;1.52;;;0.50;99.90;;;;;;4987902;28;20315;-74
2023/03/17 02:23:11;;;;;;;;;;;0.60;99.90;;;;;;4989271;28;20105;-74
2023/03/17 02:25:46;;;;;;;12.88;1.92;;;0.60;99.90;;;;;;4988864;28;19909;-74
2023/03/17 02:28:15;;;;;;;9.82;1.35;;;0.60;99.90;;;;;;4988751;28;20040;-74
2023/03/17 02:30:42;;;;;;;16.70;2.10;;;0.70;99.90;;;;;;4988750;28;20034;-72
2023/03/17 02:33:08;;;;;;;13.40;2.83;;;0.70;99.90;;;;;;4988605;28;20502;-74
2023/03/17 02:35:35;;;;;;;6.25;2.05;;;0.60;99.90;;;;;;4988757;28;20023;-75
2023/03/17 02:38:01;;;;;;;6.53;2.28;;;0.50;99.90;;;;;;4992138;28;20026;-74
2023/03/17 02:40:27;;;;;;;;;;;0.50;99.90;;;;;;4991644;28;20033;-74
2023/03/17 02:42:53;;;;;;;11.18;2.40;;;0.40;99.90;;;;;;4992390;28;19910;-73
2023/03/17 02:45:19;;;;;;;;;;;0.30;99.90;;;;;;4992696;28;20505;-74
2023/03/17 02:47:46;;;;;;;7.85;1.52;;;0.20;99.90;;;;;;4992437;28;19929;-75
2023/03/17 02:50:18;;;;;;;5.88;2.10;;;0.30;99.90;;;;;;4990919;28;20019;-74
2023/03/17 02:52:46;;;;;;;6.18;2.17;;;0.20;99.90;;;;;;4992253;28;20911;-74
2023/03/17 02:55:13;;;;;;;9.63;2.42;;;0.20;99.90;;;;;;4991930;28;20109;-74
2023/03/17 02:57:38;;;;;;;7.55;2.88;;;0.30;99.90;;;;;;4992058;28;20034;-74
2023/03/17 03:00:04;;;;;;;;;;;0.20;99.90;;;;;;4991547;28;20038;-74
2023/03/17 03:02:30;;;;;;;8.55;2.40;;;0.20;99.90;;;;;;4992761;28;19906;-74
2023/03/17 03:04:56;;;;;;;;;;;0.20;99.90;;;;;;4993261;28;20773;-74
2023/03/17 03:07:21;;;;;;;11.20;2.80;;;0.20;99.90;;;;;;4990674;28;19957;-75
2023/03/17 03:09:47;;;;;;;;;;;0.10;99.90;;;;;;4991298;28;20030;-74
2023/03/17 03:12:13;;;;;;;9.63;3.15;;;0.10;99.90;;;;;;4991594;28;20349;-74
2023/03/17 03:14:38;;;;;;;;;;;0.10;99.90;;;;;;4992191;28;20030;-75
2023/03/17 03:17:04;;;;;;;42.63;14.02;;;0.00;99.90;;;;;;4991660;28;19913;-75
2023/03/17 03:19:29;;;;;;;;;;;-0.10;99.90;;;;;;4992123;28;20026;-74
2023/03/17 03:21:55;;;;;;;16.42;5.35;;;-0.10;99.90;;;;;;4991597;28;19960;-74
2023/03/17 03:24:21;;;;;;;;;;;-0.20;99.90;;;;;;4992144;28;20064;-73
2023/03/17 03:26:47;;;;;;;10.98;4.00;;;-0.30;99.90;;;;;;4991715;28;19912;-75
2023/03/17 03:29:13;;;;;;;;;;;-0.40;99.90;;;;;;4991926;28;20022;-75
2023/03/17 03:31:38;;;;;;;12.82;3.80;;;-0.40;99.90;;;;;;4991477;28;20008;-74
2023/03/17 03:34:04;;;;;;;;;;;-0.50;99.90;;;;;;4990467;28;20034;-74
2023/03/17 03:36:29;;;;;;;11.30;3.50;;;-0.50;99.90;;;;;;4989998;28;19945;-75
2023/03/17 03:38:55;;;;;;;;;;;-0.50;99.90;;;;;;4991731;28;20110;-75
2023/03/17 03:41:21;;;;;;;34.08;11.80;;;-0.60;99.90;;;;;;4991071;28;19910;-74
2023/03/17 03:43:46;;;;;;;;;;;-0.70;99.90;;;;;;4991781;28;20045;-75
2023/03/17 03:46:12;;;;;;;22.45;7.00;;;-0.70;99.90;;;;;;4991144;28;19913;-74
2023/03/17 03:48:38;;;;;;;;;;;-0.70;99.90;;;;;;4989576;28;20048;-73
2023/03/17 03:51:03;;;;;;;14.98;4.10;;;-0.70;99.90;;;;;;4991282;28;19969;-74
2023/03/17 03:53:29;;;;;;;;;;;-0.80;99.90;;;;;;4992355;28;20073;-74
2023/03/17 03:55:55;;;;;;;13.02;3.28;;;-0.80;99.90;;;;;;4991092;28;19971;-74
2023/03/17 03:58:21;;;;;;;;;;;-0.80;99.90;;;;;;4991422;28;20037;-74
2023/03/17 04:00:47;;;;;;;18.70;5.85;;;-0.80;99.90;;;;;;4991013;28;19910;-75
2023/03/17 04:03:13;;;;;;;;;;;-0.80;99.90;;;;;;4991182;28;20503;-75
2023/03/17 04:05:39;;;;;;;22.67;7.68;;;-0.70;99.90;;;;;;4991128;28;19910;-74
2023/03/17 04:08:05;;;;;;;18.08;5.40;;;-0.70;99.90;;;;;;4991032;28;20026;-73
2023/03/17 04:10:32;;;;;;;13.93;3.95;;;-0.70;99.90;;;;;;4991179;28;20038;-74
2023/03/17 04:12:58;;;;;;;13.10;4.25;;;-0.70;99.90;;;;;;4991003;28;20042;-74
2023/03/17 04:15:23;;;;;;;;;;;-0.60;99.90;;;;;;4991964;28;20030;-74
2023/03/17 04:17:49;;;;;;;6.97;2.42;;;-0.70;99.90;;;;;;4991907;28;19910;-74
2023/03/17 04:20:15;;;;;;;;;;;-0.60;99.90;;;;;;4990137;28;20087;-75
2023/03/17 04:22:42;;;;;;;10.43;2.00;;;-0.50;99.90;;;;;;4990612;28;19960;-74
2023/03/17 04:25:10;;;;;;;10.55;2.78;;;-0.60;99.90;;;;;;4989023;28;20038;-75
2023/03/17 04:27:36;;;;;;;10.57;2.47;;;-0.50;99.90;;;;;;4990492;28;20065;-75
2023/03/17 04:30:02;;;;;;;10.77;3.35;;;-0.50;99.90;;;;;;4989921;28;20041;-76
2023/03/17 04:32:28;;;;;;;15.48;3.58;;;-0.50;99.90;;;;;;4992708;28;20030;-74
2023/03/17 04:34:53;;;;;;;;;;;-0.50;99.90;;;;;;4992119;28;20408;-74
2023/03/17 04:37:19;;;;;;;12.65;2.85;;;-0.50;99.90;;;;;;4990996;28;19917;-74
2023/03/17 04:39:45;;;;;;;;;;;-0.50;99.90;;;;;;4991050;28;20097;-75
2023/03/17 04:42:11;;;;;;;14.88;3.60;;;-0.50;99.90;;;;;;4989421;28;20262;-74
2023/03/17 04:44:36;;;;;;;;;;;-0.50;99.90;;;;;;4991363;28;20081;-76
2023/03/17 04:47:02;;;;;;;13.85;4.97;;;-0.60;99.90;;;;;;4995368;28;19960;-75
2023/03/17 04:49:27;;;;;;;;;;;-0.60;99.90;;;;;;4995464;28;20053;-74
2023/03/17 04:51:54;;;;;;;15.82;5.70;;;-0.60;99.90;;;;;;4988942;28;20004;-75
2023/03/17 04:54:20;;;;;;;18.73;5.93;;;-0.60;99.90;;;;;;4990235;28;20033;-72
2023/03/17 04:56:46;;;;;;;;;;;-0.50;99.90;;;;;;4989796;28;20026;-75
2023/03/17 04:59:11;;;;;;;21.40;5.60;;;-0.60;99.90;;;;;;4989537;28;19959;-75
2023/03/17 05:01:40;;;;;;;;;;;-0.50;99.90;;;;;;4990157;28;20062;-73
2023/03/17 05:04:08;;;;;;;13.73;4.63;;;-0.50;99.90;;;;;;4990071;28;20024;-74
2023/03/17 05:06:33;;;;;;;16.05;5.30;;;-0.50;99.90;;;;;;4989800;28;20029;-75
2023/03/17 05:08:59;;;;;;;;;;;-0.40;99.90;;;;;;4989973;28;20030;-74
2023/03/17 05:11:24;;;;;;;12.95;4.40;;;-0.40;99.90;;;;;;4989501;28;20345;-74
2023/03/17 05:13:50;;;;;;;;;;;-0.30;99.90;;;;;;4990042;28;20037;-74
2023/03/17 05:16:16;;;;;;;13.30;4.82;;;-0.20;99.90;;;;;;4989515;28;19909;-74
2023/03/17 05:18:42;;;;;;;;;;;-0.30;99.90;;;;;;4989991;28;20092;-73
2023/03/17 05:21:08;;;;;;;10.93;4.32;;;-0.20;99.90;;;;;;4989463;28;19906;-74
2023/03/17 05:23:34;;;;;;;;;;;-0.10;99.90;;;;;;4989778;28;20113;-74
2023/03/17 05:26:00;;;;;;;16.85;4.45;;;0.00;99.90;;;;;;4989833;28;19992;-75
2023/03/17 05:28:25;;;;;;;;;;;0.00;99.90;;;;;;4993594;28;20039;-74
2023/03/17 05:30:52;;;;;;;14.00;4.82;;;0.10;99.90;;;;;;4990410;28;19932;-73
2023/03/17 05:33:18;;;;;;;16.00;5.13;;;0.20;99.90;;;;;;4989484;28;20069;-74
2023/03/17 05:35:45;;;;;;;25.52;7.78;;;0.30;99.90;;;;;;4989453;28;20026;-75
2023/03/17 05:38:12;;;;;;;24.67;9.35;;;0.30;99.90;;;;;;4989214;28;20507;-74
2023/03/17 05:40:38;;;;;;;22.35;9.02;;;0.40;99.90;;;;;;4989342;28;20057;-73
2023/03/17 05:43:04;;;;;;;;;;;0.40;99.90;;;;;;4990050;28;20475;-73
2023/03/17 05:45:29;;;;;;;25.42;8.63;;;0.50;99.90;;;;;;4989294;28;19906;-75
2023/03/17 05:47:55;;;;;;;;;;;0.60;99.90;;;;;;4988380;28;20437;-74
2023/03/17 05:50:21;;;;;;;23.45;7.22;;;0.60;99.90;;;;;;4989165;28;19909;-74
2023/03/17 05:52:47;;;;;;;;;;;0.60;99.90;;;;;;4989629;28;20081;-75
2023/03/17 05:55:13;;;;;;;17.27;6.82;;;0.80;99.90;;;;;;4989015;28;20390;-75
2023/03/17 05:57:38;;;;;;;;;;;1.00;99.90;;;;;;4989425;28;20057;-75
2023/03/17 06:00:04;;;;;;;15.38;5.63;;;1.40;99.90;;;;;;4988971;28;19921;-74
2023/03/17 06:02:31;;;;;;;19.30;5.88;;;1.80;99.90;;;;;;4988956;28;20018;-75
2023/03/17 06:04:56;;;;;;;15.55;6.00;;;2.30;99.90;;;;;;4988844;28;20065;-73
2023/03/17 06:07:22;;;;;;;;;;;2.80;99.90;;;;;;4989161;28;20030;-73
2023/03/17 06:09:47;;;;;;;10.60;3.55;;;3.30;97.40;;;;;;4987340;28;19996;-74
2023/03/17 06:12:13;;;;;;;;;;;3.70;97.10;;;;;;4991356;28;20129;-72
2023/03/17 06:14:39;;;;;;;11.95;5.35;;;4.20;94.30;;;;;;4992560;28;19953;-74
2023/03/17 06:17:05;;;;;;;46.30;16.48;;;4.60;93.40;;;;;;4992280;28;20040;-76
2023/03/17 06:19:30;;;;;;;;;;;5.10;87.80;;;;;;4992950;28;20023;-74
2023/03/17 06:21:56;;;;;;;67.28;25.95;;;5.40;79.00;;;;;;4992237;28;19917;-74
2023/03/17 06:24:21;;;;;;;;;;;5.90;79.60;;;;;;4992847;28;20505;-73
2023/03/17 06:26:47;;;;;;;65.88;24.90;;;6.30;74.40;;;;;;4992552;28;19917;-72
2023/03/17 06:29:13;;;;;;;64.90;20.35;;;6.80;73.20;;;;;;4992131;28;20046;-72
2023/03/17 06:31:39;;;;;;;61.13;21.60;;;7.40;69.60;;;;;;4992307;28;20042;-72
2023/03/17 06:34:05;;;;;;;54.72;20.27;;;7.80;66.20;;;;;;4992483;28;20073;-74
2023/03/17 06:36:31;;;;;;;;;;;8.40;64.50;;;;;;4992721;28;20439;-74
2023/03/17 06:38:58;;;;;;;17.30;5.78;;;9.10;60.60;;;;;;4992445;28;19910;-72
2023/03/17 06:41:24;;;;;;;10.75;3.25;;;9.80;56.70;;;;;;4991939;28;20054;-71
2023/03/17 06:43:50;;;;;;;9.55;3.00;;;10.40;52.10;;;;;;4992184;28;20048;-72
2023/03/17 06:46:16;;;;;;;12.07;3.70;;;10.70;50.60;;;;;;4992077;28;20042;-71
2023/03/17 06:48:42;;;;;;;;;;;10.90;49.60;;;;;;4992533;28;20031;-73
2023/03/17 06:51:08;;;;;;;12.95;5.90;;;10.80;48.90;;;;;;4991699;28;19920;-70
2023/03/17 06:53:35;;;;;;;9.85;4.85;;;11.10;48.10;;;;;;4990628;28;20050;-74
2023/03/17 06:56:01;;;;;;;11.05;4.65;;;11.40;47.90;;;;;;4992040;28;20082;-71
2023/03/17 06:58:26;;;;;;;21.83;4.30;;;11.80;48.00;;;;;;4991932;28;20022;-74
2023/03/17 07:00:52;;;;;;;;;;;12.30;48.30;;;;;;4990994;28;20038;-73
2023/03/17 07:03:20;;;;;;;9.32;4.35;;;12.80;44.80;;;;;;4991843;28;19909;-74
2023/03/17 07:05:46;;;;;;;7.78;3.10;;;13.00;44.60;;;;;;4991706;28;20524;-73
2023/03/17 07:08:12;;;;;;;;;;;13.30;44.20;;;;;;4992220;28;20026;-73
2023/03/17 07:10:39;;;;;;;10.02;3.80;;;13.40;41.80;;;;;;4991673;28;19914;-74
2023/03/17 07:13:07;;;;;;;7.20;2.53;;;13.10;42.00;;;;;;4991347;28;20073;-73
2023/03/17 07:15:34;;;;;;;7.22;3.65;;;13.70;42.90;;;;;;4991486;28;20030;-73
2023/03/17 07:18:00;;;;;;;9.15;3.03;;;14.00;41.60;;;;;;4991558;28;20026;-74
2023/03/17 07:20:26;;;;;;;9.82;2.75;;;14.20;40.50;;;;;;4991501;28;20392;-73
2023/03/17 07:22:52;;;;;;;4.60;2.13;;;14.20;40.30;;;;;;4990217;28;20522;-73
2023/03/17 07:25:18;;;;;;;;;;;14.20;39.10;;;;;;4991604;28;20058;-73
2023/03/17 07:27:44;;;;;;;6.38;2.65;;;14.20;38.80;;;;;;4991352;28;19910;-74
2023/03/17 07:30:11;;;;;;;9.20;2.70;;;14.20;38.10;;;;;;4991623;28;20026;-73
2023/03/17 07:32:37;;;;;;;9.65;2.05;;;14.60;37.10;;;;;;4991295;28;20510;-73
2023/03/17 07:35:03;;;;;;;8.60;3.78;;;14.80;35.30;;;;;;4991199;28;20030;-74
2023/03/17 07:37:30;;;;;;;18.08;5.53;;;14.70;35.50;;;;;;4991632;28;20563;-73
2023/03/17 07:39:55;;;;;;;12.05;4.72;;;14.60;35.60;;;;;;4991441;28;20030;-73
2023/03/17 07:42:21;;;;;;;9.15;3.58;;;14.50;36.00;;;;;;4991164;28;20403;-74
2023/03/17 07:44:47;;;;;;;10.18;3.78;;;15.00;34.50;;;;;;4990986;28;20030;-73
2023/03/17 07:47:13;;;;;;;7.10;2.42;;;14.80;33.70;;;;;;4990771;28;20453;-74
2023/03/17 07:49:39;;;;;;;7.38;2.17;;;15.10;33.60;;;;;;4990780;28;20034;-74
2023/03/17 07:52:07;;;;;;;6.60;2.60;;;15.10;34.40;;;;;;4990717;28;20426;-74
2023/03/17 07:54:32;;;;;;;7.70;2.92;;;15.50;33.20;;;;;;4990872;28;20026;-74
2023/03/17 07:56:58;;;;;;;8.27;2.38;;;15.40;32.60;;;;;;4990755;28;20041;-73
2023/03/17 07:59:24;;;;;;;5.95;2.53;;;15.40;32.50;;;;;;4990795;28;20403;-73
2023/03/17 08:01:50;;;;;;;9.40;2.40;;;15.70;31.60;;;;;;4990727;28;20027;-73
2023/03/17 08:04:16;;;;;;;10.10;2.33;;;15.50;31.70;;;;;;4990560;28;20453;-75
2023/03/17 08:06:41;;;;;;;7.10;2.40;;;15.10;32.40;;;;;;4990451;28;20530;-73
2023/03/17 08:09:08;;;;;;;;;;;15.10;31.80;;;;;;4990655;28;20031;-74
2023/03/17 08:11:34;;;;;;;14.03;2.33;;;15.00;33.90;;;;;;4990636;28;19913;-74
2023/03/17 08:14:01;;;;;;;8.27;2.47;;;15.60;33.20;;;;;;4989024;28;20403;-73
2023/03/17 08:16:28;;;;;;;6.93;2.10;;;15.90;30.70;;;;;;4990442;28;20121;-73
2023/03/17 08:18:55;;;;;;;10.65;2.05;;;15.50;31.50;;;;;;4990620;28;20596;-73
2023/03/17 08:21:20;;;;;;;6.78;2.63;;;15.50;31.30;;;;;;4990205;28;20023;-75
2023/03/17 08:23:47;;;;;;;5.68;1.75;;;15.30;30.60;;;;;;4990093;28;20513;-73
2023/03/17 08:26:13;;;;;;;5.18;1.95;;;15.00;31.60;;;;;;4990339;28;20026;-73
2023/03/17 08:28:39;;;;;;;7.28;2.88;;;15.20;31.30;;;;;;4990338;28;20026;-74
2023/03/17 08:31:12;;;;;;;9.07;2.33;;;14.90;30.50;;;;;;4990139;28;20038;-73
2023/03/17 08:33:38;;;;;;;7.00;1.73;;;14.80;31.30;;;;;;4988460;28;20034;-73
2023/03/17 08:36:08;;;;;;;6.43;1.77;;;14.90;31.80;;;;;;4989982;28;20390;-73
2023/03/17 08:38:38;;;;;;;8.70;1.95;;;15.10;32.00;;;;;;4989435;28;20057;-73
2023/03/17 08:41:07;;;;;;;6.30;1.98;;;15.60;31.80;;;;;;4989888;28;20053;-73
2023/03/17 08:43:34;;;;;;;6.72;1.88;;;15.70;30.40;;;;;;4989816;28;20022;-74
2023/03/17 08:46:20;;;;;;;9.23;1.98;;;15.40;30.00;;;;;;4989945;28;20030;-74
2023/03/17 08:48:48;;;;;;;7.28;1.80;;;15.20;30.20;;;;;;4989909;28;20525;-74
2023/03/17 08:51:15;;;;;;;7.53;2.00;;;15.20;30.80;;;;;;4989414;28;20061;-74
2023/03/17 08:53:41;;;;;;;7.40;1.80;;;15.30;30.50;;;;;;4989739;28;20058;-74
2023/03/17 08:56:07;;;;;;;7.47;1.88;;;15.50;30.70;;;;;;4988336;28;20306;-74
2023/03/17 08:58:35;;;;;;;6.18;1.88;;;15.20;30.60;;;;;;4989686;28;20109;-76
2023/03/17 09:01:03;;;;;;;7.22;1.67;;;15.30;30.70;;;;;;4989269;28;20039;-76
2023/03/17 09:03:29;;;;;;;6.45;2.17;;;15.30;30.00;;;;;;4989617;28;20041;-74
2023/03/17 09:05:55;;;;;;;7.78;1.80;;;15.30;30.60;;;;;;4989651;28;20038;-74
2023/03/17 09:08:21;;;;;;;4.47;1.50;;;15.70;30.50;;;;;;4989552;28;20034;-74
2023/03/17 09:10:47;;;;;;;8.68;2.13;;;16.30;31.40;;;;;;4989413;28;20430;-74
2023/03/17 09:13:13;;;;;;;9.25;1.75;;;16.80;30.00;;;;;;4989373;28;20554;-74
2023/03/17 09:15:41;;;;;;;6.03;1.50;;;17.30;29.60;;;;;;4988723;28;20427;-73
2023/03/17 09:18:07;;;;;;;8.07;2.08;;;17.70;29.20;;;;;;4989527;28;20026;-74
2023/03/17 09:20:33;;;;;;;4.18;1.70;;;17.50;27.60;;;;;;4987907;28;20034;-75
2023/03/17 09:22:59;;;;;;;4.80;1.67;;;16.90;28.00;;;;;;4989312;28;20037;-74
2023/03/17 09:25:26;;;;;;;5.07;1.67;;;16.30;29.00;;;;;;4989403;28;20077;-74
2023/03/17 09:27:52;;;;;;;6.25;1.42;;;16.20;29.80;;;;;;4987869;28;20404;-74
2023/03/17 09:30:17;;;;;;;6.47;1.88;;;16.60;29.80;;;;;;4987808;28;20037;-74
2023/03/17 09:32:43;;;;;;;11.68;2.95;;;16.80;29.30;;;;;;4989269;28;20038;-74
2023/03/17 09:35:10;;;;;;;8.10;2.35;;;17.20;29.40;;;;;;4988937;28;20034;-74
2023/03/17 09:37:37;;;;;;;6.57;1.85;;;17.10;28.50;;;;;;4989134;28;20030;-73
2023/03/17 09:40:07;;;;;;;4.90;1.35;;;17.00;29.40;;;;;;4989144;28;20030;-74
2023/03/17 09:42:57;;;;;;;6.13;1.55;;;17.10;29.00;;;;;;4987788;28;20037;-72
2023/03/17 09:45:31;;;;;;;4.40;1.50;;;16.90;28.20;;;;;;4988724;28;20034;-74
2023/03/17 09:48:30;;;;;;;7.13;1.88;;;16.10;28.60;;;;;;4988848;28;20376;-74
2023/03/17 09:51:06;;;;;;;12.43;1.83;;;15.60;29.30;;;;;;4988851;28;20150;-75
2023/03/17 09:53:55;;;;;;;4.55;1.65;;;15.80;29.50;;;;;;4988841;28;20571;-73
2023/03/17 09:56:22;;;;;;;5.95;1.33;;;16.20;29.80;;;;;;4988984;28;20030;-74
2023/03/17 09:58:57;;;;;;;9.70;1.75;;;16.70;29.70;;;;;;4987719;28;20566;-74
2023/03/17 10:01:22;;;;;;;6.68;1.88;;;17.40;29.80;;;;;;4988961;28;20026;-74
2023/03/17 10:03:49;;;;;;;6.03;2.72;;;17.50;28.40;;;;;;4988869;28;20784;-74
2023/03/17 10:06:38;;;;;;;6.57;1.42;;;17.80;29.50;;;;;;4988995;28;20026;-74
2023/03/17 10:09:25;;;;;;;9.07;1.70;;;18.00;29.20;;;;;;4988660;28;20039;-74
2023/03/17 10:12:15;;;;;;;4.28;1.48;;;18.10;27.90;;;;;;4988755;28;20026;-74
2023/03/17 10:14:43;;;;;;;5.38;1.33;;;18.20;27.20;;;;;;4989034;28;20031;-74
2023/03/17 10:17:19;;;;;;;4.97;1.73;;;17.60;28.00;;;;;;4988742;28;20479;-74
2023/03/17 10:20:04;;;;;;;3.55;1.80;;;17.60;29.20;;;;;;4987372;28;20038;-74
2023/03/17 10:22:47;;;;;;;10.15;1.52;;;17.90;29.40;;;;;;4988825;28;20026;-74
2023/03/17 10:25:22;;;;;;;7.45;1.92;;;17.90;28.40;;;;;;4987189;28;20034;-74
2023/03/17 10:27:55;;;;;;;4.68;1.92;;;17.10;28.10;;;;;;4987632;28;20033;-74
2023/03/17 10:30:22;;;;;;;4.13;1.52;;;16.60;28.20;;;;;;4988540;28;20038;-74
2023/03/17 10:32:48;;;;;;;7.18;1.67;;;16.30;28.90;;;;;;4988618;28;20064;-75
2023/03/17 10:35:16;;;;;;;3.72;1.27;;;16.50;28.70;;;;;;4988752;28;20065;-73
2023/03/17 10:37:44;;;;;;;7.40;1.70;;;16.80;28.50;;;;;;4989044;28;20817;-74
2023/03/17 10:40:27;;;;;;;4.00;1.52;;;16.40;29.10;;;;;;4988583;28;20674;-72
2023/03/17 10:43:06;;;;;;;5.80;1.70;;;16.00;29.90;;;;;;4988657;28;20835;-71
2023/03/17 10:45:39;;;;;;;6.88;2.47;;;15.50;31.10;;;;;;4988612;28;20033;-73
2023/03/17 10:48:15;;;;;;;9.27;2.20;;;15.00;31.60;;;;;;4988556;28;20030;-73
2023/03/17 10:50:40;;;;;;;5.00;1.57;;;14.40;33.20;;;;;;4988319;28;20395;-73
2023/03/17 10:53:08;;;;;;;;;;;13.30;32.80;;;;;;4988538;28;20066;-74
2023/03/17 10:55:46;;;;;;;7.13;2.28;;;12.90;35.10;;;;;;4988393;28;20337;-74
2023/03/17 10:58:16;;;;;;;8.43;2.20;;;12.70;36.30;;;;;;4990513;28;20058;-74
2023/03/17 11:00:59;;;;;;;6.53;1.90;;;12.60;36.90;;;;;;4991958;28;20027;-74
2023/03/17 11:03:34;;;;;;;4.70;1.52;;;12.70;37.40;;;;;;4991868;28;20019;-73
2023/03/17 11:06:07;;;;;;;4.60;1.83;;;12.60;37.60;;;;;;4991796;28;20490;-74
2023/03/17 11:08:37;;;;;;;3.38;1.27;;;12.60;37.20;;;;;;4990265;28;20057;-73
2023/03/17 11:11:07;;;;;;;13.50;2.55;;;12.50;37.50;;;;;;4991330;28;20027;-73
2023/03/17 11:13:33;;;;;;;7.85;2.45;;;12.30;36.20;;;;;;4991766;28;20038;-75
2023/03/17 11:16:15;;;;;;;4.90;2.17;;;12.00;36.60;;;;;;4991642;28;20089;-74
2023/03/17 11:18:41;;;;;;;14.43;2.25;;;11.50;36.60;;;;;;4991587;28;20117;-74
2023/03/17 11:21:10;;;;;;;;;;;11.40;37.50;;;;;;4991920;28;20121;-73
2023/03/17 11:23:47;;;;;;;6.00;1.95;;;11.20;37.10;;;;;;4991591;28;19916;-73
2023/03/17 11:26:42;;;;;;;8.15;2.03;;;11.20;38.30;;;;;;4991422;28;20058;-72
2023/03/17 11:29:31;;;;;;;8.60;2.13;;;11.30;38.40;;;;;;4989709;28;20038;-73
2023/03/17 11:32:00;;;;;;;4.13;1.83;;;11.50;38.60;;;;;;4991430;28;20034;-73
2023/03/17 11:34:35;;;;;;;5.95;1.90;;;11.40;38.10;;;;;;4991429;28;20410;-73
2023/03/17 11:37:19;;;;;;;6.07;1.80;;;11.50;38.70;;;;;;4991031;28;20088;-75
2023/03/17 11:40:13;;;;;;;7.38;1.55;;;11.60;38.80;;;;;;4991767;28;20026;-73
2023/03/17 11:42:39;;;;;;;7.63;2.17;;;11.60;38.90;;;;;;4991294;28;20026;-74
2023/03/17 11:45:09;;;;;;;;;;;11.60;38.90;;;;;;4991536;28;20045;-73
2023/03/17 11:47:48;;;;;;;7.00;1.90;;;11.70;39.40;;;;;;4991154;28;19910;-72
2023/03/17 11:50:17;;;;;;;8.00;2.17;;;11.70;39.00;;;;;;4990913;28;20124;-73
2023/03/17 11:53:01;;;;;;;10.45;1.88;;;11.70;38.40;;;;;;4990970;28;20133;-76
2023/03/17 11:55:47;;;;;;;8.85;2.00;;;11.70;39.60;;;;;;4990804;28;20038;-71
2023/03/17 11:58:23;;;;;;;6.88;1.80;;;11.70;38.50;;;;;;4989374;28;20026;-74
2023/03/17 12:00:55;;;;;;;5.50;1.77;;;11.60;39.20;;;;;;4990233;28;20026;-75
2023/03/17 12:03:52;;;;;;;6.13;2.15;;;11.70;39.80;;;;;;4990801;28;20273;-80
2023/03/17 12:06:25;;;;;;;12.53;3.03;;;11.50;38.10;;;;;;4990736;28;20026;-72
2023/03/17 12:08:54;;;;;;;8.73;2.90;;;11.50;40.20;;;;;;4989961;28;20030;-75
2023/03/17 12:11:27;;;;;;;6.25;2.40;;;11.50;40.10;;;;;;4990418;28;20475;-72
2023/03/17 12:14:12;;;;;;;14.95;2.60;;;11.60;39.80;;;;;;4990627;28;20130;-75
2023/03/17 12:16:48;;;;;;;7.78;3.20;;;11.70;39.40;;;;;;4990664;28;20510;-73
2023/03/17 12:19:44;;;;;;;7.18;1.90;;;11.50;38.40;;;;;;4990223;28;20027;-75
2023/03/17 12:22:27;;;;;;;8.45;2.30;;;11.40;39.40;;;;;;4989049;28;20422;-74
2023/03/17 12:25:24;;;;;;;5.43;1.92;;;11.40;39.20;;;;;;4990571;28;20039;-73
2023/03/17 12:28:09;;;;;;;7.13;2.65;;;11.20;39.30;;;;;;4990588;28;20019;-75
2023/03/17 12:31:06;;;;;;;7.90;2.65;;;11.00;39.70;;;;;;4988877;28;20042;-72
2023/03/17 12:33:52;;;;;;;7.72;2.78;;;11.10;40.30;;;;;;4988974;28;20411;-73
2023/03/17 12:36:18;;;;;;;10.65;2.22;;;11.20;40.00;;;;;;4988908;28;20026;-73
2023/03/17 12:39:04;;;;;;;9.15;2.20;;;11.20;40.40;;;;;;4990095;28;20058;-73
2023/03/17 12:42:17;;;;;;;6.63;2.45;;;11.30;40.30;;;;;;4990541;28;20040;-74
2023/03/17 12:44:53;;;;;;;6.20;1.83;;;11.40;40.80;;;;;;4983177;28;20601;-73
2023/03/17 12:47:55;;;;;;;8.13;2.45;;;11.50;41.10;;;;;;4988900;28;20376;-76
2023/03/17 12:50:48;;;;;;;8.48;2.40;;;11.60;40.10;;;;;;4989724;28;20093;-71
2023/03/17 12:53:33;;;;;;;7.07;1.80;;;11.60;40.20;;;;;;4988198;28;20502;-74
2023/03/17 12:56:25;;;;;;;16.73;2.55;;;11.80;40.10;;;;;;4989742;28;20408;-71
2023/03/17 12:58:57;;;;;;;8.93;2.92;;;11.90;40.00;;;;;;4989773;28;20022;-72
2023/03/17 13:01:33;;;;;;;8.25;3.00;;;11.90;39.20;;;;;;4989738;28;20150;-71
2023/03/17 13:04:05;;;;;;;10.50;2.50;;;11.80;39.40;;;;;;4989776;28;20117;-72
2023/03/17 13:06:46;;;;;;;7.20;2.80;;;11.80;39.70;;;;;;4989571;28;20093;-72
2023/03/17 13:09:32;;;;;;;8.65;3.13;;;11.70;38.60;;;;;;4989290;28;20060;-72
2023/03/17 13:12:00;;;;;;;14.88;7.07;;;11.60;40.70;;;;;;4989604;28;20132;-75